Haymarket, VA

10:17 PM EST on February 27, 2015 (GMT -0500)
Washington Dulles International | Change Station
CLOSE
Current Station
Airport
Location: Dulles Airport,
Elevation: 322 ft
Nearby Weather Stations

Elev 322 ft 38.93 °N, 77.45 °W | Updated 25 minutes ago

Clear
Clear
22 °F
Feels Like 12 °F
N
9
Wind Variable Wind from NNW

Today
High -- | Low -- °F
--% Chance of Precip.
Yesterday
High -- | Low -- °F
Precip. -- in
6:46 AM 6:01 PM
Waxing Gibbous, 74% visible
Pressure 30.64 in
Visibility 10.0 miles
Clouds Clear
Windchill 12 °F
Dew Point 2 °F
Humidity 42%
Rainfall 0.00 in
Snow Depth Not available.
UV 0 out of 12
Pollen .40 out of 12
Air Quality Not available.
Flu Activity Not available.
METAR KIAD 280252Z 34008KT 10SM CLR M06/M17 A3062 RMK AO2 SLP374 T10561167 53029

More Conditions Fewer Conditions

Pressure 30.64 in
Visibility 10.0 miles
Clouds Clear
Windchill 12 °F
Dew Point 2 °F
Humidity 42%
Rainfall 0.00 in
Snow Depth Not available.
UV 0 out of 12
Pollen .40 out of 12
Air Quality Not available.
Flu Activity Not available.
METAR KIAD 280252Z 34008KT 10SM CLR M06/M17 A3062 RMK AO2 SLP374 T10561167 53029

More Conditions Fewer Conditions

10-Day Weather Forecast

Almanac

Astronomy

Feb. 27, 2015 Rise Set
Actual Time
Civil Twilight
Nautical Twilight
Astronomical Twilight
Moon
Length of Visible Light
Length of Day
Tomorrow will be .
, % of the Moon is Illuminated

Today's Extremes

State Highs State Lows

Community

WunderPhotos

Upload Photos

1,800,951 photos uploaded!

WunderBlogs® & News

Nearby

Air Quality

  Air Quality AQ Index Pollutant
Not available.

Snow Depth

Station Depth Elevation

Earthquake Activity

City Distance Mag. Time & Date
Minimum magnitude displayed is 2.5.

Coastal Water Temperatures

Place Temperature

Nearby Weather Stations